createdAt,value
2018-08-09T00:03:00.290Z,28.50
2018-08-09T00:07:52.819Z,28.45
2018-08-09T00:12:45.405Z,28.38
2018-08-09T00:17:37.958Z,28.23
2018-08-09T00:22:30.495Z,28.12
2018-08-09T00:27:23.087Z,28.08
2018-08-09T00:32:15.724Z,28.03
2018-08-09T00:37:08.299Z,27.94
2018-08-09T00:42:00.983Z,27.89
2018-08-09T00:46:53.546Z,27.86
2018-08-09T00:51:46.130Z,27.85
2018-08-09T00:56:38.694Z,27.77
2018-08-09T01:01:31.201Z,27.63
2018-08-09T01:06:23.771Z,27.53
2018-08-09T01:11:16.265Z,27.44
2018-08-09T01:16:08.836Z,27.36
2018-08-09T01:21:01.427Z,27.29
2018-08-09T01:25:53.999Z,27.37
2018-08-09T01:30:46.497Z,27.45
2018-08-09T01:35:39.076Z,27.49
2018-08-09T01:40:31.642Z,27.56
2018-08-09T01:45:24.244Z,27.63
2018-08-09T01:50:16.799Z,27.65
2018-08-09T01:55:09.422Z,27.67
2018-08-09T02:00:01.963Z,27.68
2018-08-09T02:04:54.591Z,27.70
2018-08-09T02:09:47.038Z,27.63
2018-08-09T02:14:39.564Z,27.50
2018-08-09T02:19:32.084Z,27.37
2018-08-09T02:24:24.597Z,27.33
2018-08-09T02:29:17.229Z,27.34
2018-08-09T02:34:09.799Z,27.28
2018-08-09T02:39:02.474Z,27.20
2018-08-09T02:43:55.024Z,27.18
2018-08-09T02:48:47.574Z,27.21
2018-08-09T02:53:40.099Z,27.15
2018-08-09T02:58:32.610Z,27.07
2018-08-09T03:03:25.203Z,27.05
2018-08-09T03:08:17.775Z,27.04
2018-08-09T03:13:10.268Z,26.94
2018-08-09T03:18:03.063Z,26.89
2018-08-09T03:22:55.587Z,26.75
2018-08-09T03:27:48.207Z,26.72
2018-08-09T03:32:40.741Z,26.66
2018-08-09T03:37:33.253Z,26.60
2018-08-09T03:42:25.830Z,26.59
2018-08-09T03:47:18.416Z,26.48
2018-08-09T03:52:11.009Z,26.44
2018-08-09T03:57:03.516Z,26.42
2018-08-09T04:01:56.127Z,26.37
2018-08-09T04:06:48.678Z,26.36
2018-08-09T04:11:41.383Z,26.35
2018-08-09T04:16:34.213Z,26.30
2018-08-09T04:21:26.811Z,26.25
2018-08-09T04:26:19.338Z,26.21
2018-08-09T04:31:11.901Z,26.14
2018-08-09T04:36:04.675Z,26.11
2018-08-09T04:40:57.290Z,26.02
2018-08-09T04:45:49.900Z,26.00
2018-08-09T04:50:42.544Z,26.01
2018-08-09T04:55:35.388Z,25.94
2018-08-09T05:00:28.150Z,25.93
2018-08-09T05:05:20.870Z,25.95
2018-08-09T05:10:13.586Z,26.01
2018-08-09T05:15:06.141Z,26.03
2018-08-09T05:19:58.786Z,26.07
2018-08-09T05:24:51.313Z,26.12
2018-08-09T05:29:43.955Z,26.13
2018-08-09T05:34:36.549Z,26.16
2018-08-09T05:39:29.159Z,26.16
2018-08-09T05:44:21.806Z,26.14
2018-08-09T05:49:14.526Z,26.17
2018-08-09T05:54:07.150Z,26.14
2018-08-09T05:58:59.968Z,26.15
2018-08-09T06:03:52.519Z,26.16
2018-08-09T06:08:45.139Z,26.24
2018-08-09T06:13:37.877Z,26.26
2018-08-09T06:18:30.842Z,26.27
2018-08-09T06:23:23.502Z,26.31
2018-08-09T06:28:16.093Z,26.36
2018-08-09T06:33:08.742Z,26.42
2018-08-09T06:38:01.363Z,26.50
2018-08-09T06:42:53.927Z,26.55
2018-08-09T06:47:46.595Z,26.62
2018-08-09T06:52:39.251Z,26.67
2018-08-09T06:57:32.022Z,26.72
2018-08-09T07:02:24.619Z,26.79
2018-08-09T07:07:17.178Z,27.19
2018-08-09T07:12:09.717Z,28.16
2018-08-09T07:17:02.482Z,29.14
2018-08-09T07:21:55.146Z,29.99
2018-08-09T07:26:47.753Z,30.71
2018-08-09T07:31:40.290Z,31.29
2018-08-09T07:36:33.068Z,31.70
2018-08-09T07:41:25.673Z,32.04
2018-08-09T07:46:18.248Z,32.37
2018-08-09T07:51:10.836Z,32.57
2018-08-09T07:56:03.441Z,32.72
2018-08-09T08:00:56.048Z,32.84
2018-08-09T08:05:48.716Z,32.96
2018-08-09T08:10:41.253Z,33.02
2018-08-09T08:15:33.959Z,33.10
2018-08-09T08:20:26.635Z,33.11
2018-08-09T08:25:19.202Z,32.84
2018-08-09T08:30:13.031Z,32.56
2018-08-09T08:35:06.322Z,32.34
2018-08-09T08:39:59.075Z,32.13
2018-08-09T08:44:51.731Z,31.66
2018-08-09T08:49:44.229Z,31.26
2018-08-09T08:54:36.904Z,31.23
2018-08-09T08:59:29.528Z,31.34
2018-08-09T09:04:22.125Z,31.58
2018-08-09T09:09:14.784Z,31.74
2018-08-09T09:14:07.422Z,31.80
2018-08-09T09:19:00.232Z,31.90
2018-08-09T09:23:52.815Z,32.07
2018-08-09T09:28:45.402Z,32.10
2018-08-09T09:33:37.926Z,32.20
2018-08-09T09:38:30.513Z,32.35
2018-08-09T09:43:23.294Z,32.49
2018-08-09T09:48:15.854Z,32.60
2018-08-09T09:53:08.509Z,32.70
2018-08-09T09:58:01.283Z,32.85
2018-08-09T10:02:53.891Z,32.93
2018-08-09T10:07:46.505Z,32.98
2018-08-09T10:12:39.599Z,33.11
2018-08-09T10:17:32.576Z,33.11
2018-08-09T10:22:25.230Z,33.14
2018-08-09T10:27:17.855Z,33.24
2018-08-09T10:32:10.436Z,33.29
2018-08-09T10:37:03.081Z,33.36
2018-08-09T10:41:55.625Z,33.41
2018-08-09T10:46:48.294Z,33.58
2018-08-09T10:51:41.034Z,33.77
2018-08-09T10:56:33.648Z,33.89
2018-08-09T11:01:26.252Z,34.01
2018-08-09T11:06:18.818Z,34.03
2018-08-09T11:11:13.446Z,34.08
2018-08-09T11:16:06.001Z,34.12
2018-08-09T11:20:58.623Z,34.17
2018-08-09T11:25:51.201Z,34.34
2018-08-09T11:30:43.751Z,34.48
2018-08-09T11:35:36.352Z,34.53
2018-08-09T11:40:28.892Z,34.59
2018-08-09T11:45:21.694Z,34.68
2018-08-09T11:50:14.091Z,34.82
2018-08-09T11:55:06.689Z,34.86
2018-08-09T11:59:59.356Z,35.02
2018-08-09T12:04:51.967Z,35.10
2018-08-09T12:09:44.517Z,35.21
2018-08-09T12:14:37.198Z,35.24
2018-08-09T12:19:29.847Z,35.35
2018-08-09T12:24:22.359Z,35.51
2018-08-09T12:29:14.946Z,35.65
2018-08-09T12:34:07.634Z,35.79
2018-08-09T12:39:00.384Z,35.88
2018-08-09T12:43:53.135Z,35.89
2018-08-09T12:48:45.723Z,35.92
2018-08-09T12:53:38.316Z,35.97
2018-08-09T12:58:30.876Z,35.90
2018-08-09T13:03:23.426Z,35.97
2018-08-09T13:08:16.293Z,36.05
2018-08-09T13:13:08.948Z,36.01
2018-08-09T13:18:01.526Z,36.16
2018-08-09T13:22:54.094Z,36.33
2018-08-09T13:27:47.134Z,36.49
2018-08-09T13:32:40.386Z,36.47
2018-08-09T13:37:32.929Z,36.43
2018-08-09T13:42:25.498Z,36.51
2018-08-09T13:47:18.042Z,36.43
2018-08-09T13:52:10.571Z,36.47
2018-08-09T13:57:03.185Z,36.52
2018-08-09T14:01:55.799Z,36.56
2018-08-09T14:06:48.324Z,36.61
2018-08-09T14:11:41.559Z,36.58
2018-08-09T14:16:34.207Z,36.64
2018-08-09T14:21:26.795Z,36.66
2018-08-09T14:26:19.381Z,36.62
2018-08-09T14:31:11.946Z,36.60
2018-08-09T14:36:04.493Z,36.61
2018-08-09T14:40:57.132Z,36.62
2018-08-09T14:45:49.753Z,36.66
2018-08-09T14:50:42.719Z,36.59
2018-08-09T14:55:35.299Z,36.62
2018-08-09T15:00:27.927Z,36.62
2018-08-09T15:05:20.520Z,36.68
2018-08-09T15:10:14.399Z,36.72
2018-08-09T15:15:09.454Z,36.70
2018-08-09T15:20:03.031Z,36.65
2018-08-09T15:24:55.601Z,36.57
2018-08-09T15:29:48.162Z,36.57
2018-08-09T15:34:40.767Z,36.57
2018-08-09T15:39:33.330Z,36.48
2018-08-09T15:44:26.255Z,36.44
2018-08-09T15:49:18.887Z,36.40
2018-08-09T15:54:11.437Z,36.33
2018-08-09T15:59:04.042Z,36.35
2018-08-09T16:03:56.629Z,36.32
2018-08-09T16:08:49.179Z,36.35
2018-08-09T16:13:41.728Z,36.31
2018-08-09T16:18:34.473Z,36.24
2018-08-09T16:23:27.087Z,36.19
2018-08-09T16:28:20.409Z,36.15
2018-08-09T16:33:13.018Z,36.13
2018-08-09T16:38:05.600Z,36.12
2018-08-09T16:42:58.183Z,36.11
2018-08-09T16:47:52.010Z,36.08
2018-08-09T16:52:45.550Z,36.01
2018-08-09T16:57:38.336Z,35.96
2018-08-09T17:02:31.185Z,35.91
2018-08-09T17:07:23.731Z,35.87
2018-08-09T17:12:16.362Z,35.81
2018-08-09T17:17:08.932Z,35.73
2018-08-09T17:22:01.442Z,35.66
2018-08-09T17:26:53.984Z,35.59
2018-08-09T17:31:46.558Z,35.52
2018-08-09T17:36:39.250Z,35.46
2018-08-09T17:41:31.778Z,35.39
2018-08-09T17:46:24.364Z,35.32
2018-08-09T17:51:17.098Z,35.24
2018-08-09T17:56:09.680Z,35.15
2018-08-09T18:01:02.177Z,35.06
2018-08-09T18:05:54.826Z,34.97
2018-08-09T18:10:47.475Z,34.89
2018-08-09T18:15:40.068Z,34.82
2018-08-09T18:20:34.201Z,34.59
2018-08-09T18:25:26.829Z,34.27
2018-08-09T18:30:19.940Z,34.01
2018-08-09T18:35:14.098Z,33.92
2018-08-09T18:40:11.608Z,33.85
2018-08-09T18:45:05.150Z,33.71
2018-08-09T18:49:57.764Z,33.61
2018-08-09T18:54:50.287Z,33.55
2018-08-09T18:59:42.742Z,33.48
2018-08-09T19:04:35.166Z,33.37
2018-08-09T19:09:27.710Z,33.29
2018-08-09T19:14:20.295Z,33.28
2018-08-09T19:19:12.861Z,33.27
2018-08-09T19:24:05.439Z,33.25
2018-08-09T19:28:57.989Z,33.17
2018-08-09T19:33:50.708Z,32.97
2018-08-09T19:38:43.510Z,32.83
2018-08-09T19:43:36.107Z,32.70
2018-08-09T19:48:28.751Z,32.19
2018-08-09T19:53:21.244Z,31.14
2018-08-09T19:58:13.833Z,30.90
2018-08-09T20:03:06.603Z,30.96
2018-08-09T20:07:59.551Z,30.91
2018-08-09T20:12:52.115Z,30.89
2018-08-09T20:17:44.857Z,30.77
2018-08-09T20:22:37.489Z,30.64
2018-08-09T20:27:30.051Z,30.59
2018-08-09T20:32:22.670Z,30.42
2018-08-09T20:37:15.350Z,30.26
2018-08-09T20:42:07.946Z,30.19
2018-08-09T20:47:00.552Z,30.07
2018-08-09T20:51:53.131Z,29.91
2018-08-09T20:56:45.703Z,29.82
2018-08-09T21:01:38.379Z,29.70
2018-08-09T21:06:31.000Z,29.50
2018-08-09T21:11:23.614Z,29.25
2018-08-09T21:16:16.122Z,29.08
2018-08-09T21:21:08.682Z,28.97
2018-08-09T21:26:01.263Z,28.78
2018-08-09T21:30:53.878Z,28.80
2018-08-09T21:35:46.405Z,28.92
2018-08-09T21:40:39.000Z,28.80
2018-08-09T21:45:31.493Z,28.65
2018-08-09T21:50:24.214Z,28.73
2018-08-09T21:55:16.789Z,28.73
2018-08-09T22:00:40.053Z,28.62
2018-08-09T22:05:38.718Z,28.48
2018-08-09T22:10:37.178Z,28.29
2018-08-09T22:15:35.604Z,28.01
2018-08-09T22:20:34.065Z,27.65
2018-08-09T22:25:26.622Z,27.24
2018-08-09T22:30:19.545Z,26.90
2018-08-09T22:35:12.858Z,26.60
2018-08-09T22:40:05.452Z,26.38
2018-08-09T22:44:58.019Z,26.10
2018-08-09T22:49:50.558Z,25.84
2018-08-09T22:54:43.130Z,25.61
2018-08-09T22:59:35.681Z,25.48
2018-08-09T23:04:28.257Z,25.35
2018-08-09T23:09:20.838Z,25.18
2018-08-09T23:14:13.358Z,25.06
2018-08-09T23:19:06.026Z,24.90
2018-08-09T23:23:58.806Z,24.79
2018-08-09T23:28:51.351Z,24.68
2018-08-09T23:33:43.869Z,24.62
2018-08-09T23:38:36.440Z,24.54
2018-08-09T23:43:29.000Z,24.45
2018-08-09T23:48:21.587Z,24.44
2018-08-09T23:53:14.128Z,24.46
2018-08-09T23:58:06.764Z,24.57
